createdAt,value
2022-08-28T00:04:10.330Z,15.68
2022-08-28T00:09:12.249Z,16.65
2022-08-28T00:14:14.502Z,15.00
2022-08-28T00:19:19.884Z,19.40
2022-08-28T00:24:21.489Z,17.27
2022-08-28T00:29:23.064Z,15.02
2022-08-28T00:34:33.556Z,17.65
2022-08-28T00:39:35.182Z,14.60
2022-08-28T00:44:36.874Z,15.80
2022-08-28T00:49:47.469Z,16.60
2022-08-28T01:00:01.702Z,14.93
2022-08-28T01:05:04.040Z,19.10
2022-08-28T01:10:11.056Z,12.65
2022-08-28T01:15:16.580Z,12.02
2022-08-28T01:20:22.054Z,14.27
2022-08-28T01:25:25.822Z,17.45
2022-08-28T01:30:29.691Z,16.45
2022-08-28T01:35:34.814Z,16.13
2022-08-28T01:40:39.558Z,14.43
2022-08-28T01:45:44.671Z,15.52
2022-08-28T01:50:46.138Z,16.83
2022-08-28T01:55:47.612Z,16.00
2022-08-28T02:00:49.418Z,18.63
2022-08-28T02:05:50.973Z,14.15
2022-08-28T02:10:53.062Z,14.82
2022-08-28T02:15:54.652Z,12.60
2022-08-28T02:20:56.114Z,17.98
2022-08-28T02:25:57.720Z,13.63
2022-08-28T02:30:59.710Z,15.60
2022-08-28T02:36:01.254Z,15.70
2022-08-28T02:41:04.265Z,20.08
2022-08-28T02:46:07.086Z,21.15
2022-08-28T02:51:13.263Z,19.17
2022-08-28T02:56:15.161Z,22.10
2022-08-28T03:01:16.649Z,19.55
2022-08-28T03:06:18.160Z,19.05
2022-08-28T03:11:19.889Z,21.95
2022-08-28T03:16:21.418Z,24.60
2022-08-28T03:21:22.876Z,20.92
2022-08-28T03:26:25.156Z,22.55
2022-08-28T03:31:28.669Z,18.00
2022-08-28T03:36:30.263Z,19.48
2022-08-28T03:41:32.519Z,22.25
2022-08-28T03:46:34.242Z,26.50
2022-08-28T03:51:35.778Z,24.00
2022-08-28T03:56:37.211Z,16.98
2022-08-28T04:01:38.889Z,20.15
2022-08-28T04:06:40.751Z,21.63
2022-08-28T04:11:42.505Z,19.00
2022-08-28T04:16:44.157Z,24.33
2022-08-28T04:21:45.646Z,20.10
2022-08-28T04:26:47.107Z,17.83
2022-08-28T04:31:48.650Z,20.45
2022-08-28T04:36:51.266Z,17.35
2022-08-28T04:41:55.236Z,15.18
2022-08-28T04:46:56.732Z,20.08
2022-08-28T04:52:00.707Z,20.33
2022-08-28T04:57:02.746Z,16.70
2022-08-28T05:02:08.295Z,14.85
2022-08-28T05:07:09.912Z,21.50
2022-08-28T05:12:17.094Z,12.88
2022-08-28T05:17:18.559Z,16.08
2022-08-28T05:22:20.074Z,15.32
2022-08-28T05:27:23.763Z,14.93
2022-08-28T05:32:25.266Z,15.55
2022-08-28T05:37:27.735Z,18.45
2022-08-28T05:42:30.913Z,19.33
2022-08-28T05:47:32.863Z,16.80
2022-08-28T05:52:35.179Z,16.65
2022-08-28T05:57:36.612Z,15.65
2022-08-28T06:02:38.359Z,11.95
2022-08-28T06:07:41.063Z,18.23
2022-08-28T06:12:42.570Z,12.02
2022-08-28T06:17:46.359Z,13.73
2022-08-28T06:22:50.729Z,11.98
2022-08-28T06:27:52.164Z,11.23
2022-08-28T06:32:54.715Z,16.13
2022-08-28T06:37:56.250Z,11.70
2022-08-28T06:42:57.697Z,15.38
2022-08-28T06:47:59.200Z,18.20
2022-08-28T06:53:01.371Z,15.02
2022-08-28T06:58:03.774Z,16.60
2022-08-28T07:03:08.220Z,17.73
2022-08-28T07:08:09.656Z,14.13
2022-08-28T07:13:11.107Z,14.85
2022-08-28T07:18:12.616Z,14.45
2022-08-28T07:23:14.244Z,14.75
2022-08-28T07:28:16.370Z,11.95
2022-08-28T07:33:17.807Z,9.60
2022-08-28T07:38:20.108Z,7.90
2022-08-28T07:43:40.326Z,10.45
2022-08-28T07:48:42.442Z,11.38
2022-08-28T07:53:44.078Z,7.88
2022-08-28T07:58:46.148Z,8.70
2022-08-28T08:03:47.763Z,9.65
2022-08-28T08:08:53.582Z,10.93
2022-08-28T08:13:55.060Z,12.15
2022-08-28T08:18:57.852Z,9.68
2022-08-28T08:23:59.380Z,11.10
2022-08-28T08:29:00.983Z,10.32
2022-08-28T08:34:04.205Z,8.75
2022-08-28T08:39:09.646Z,6.70
2022-08-28T08:44:42.478Z,9.57
2022-08-28T08:49:54.514Z,8.45
2022-08-28T08:55:17.246Z,9.77
2022-08-28T09:00:20.530Z,7.68
2022-08-28T09:05:33.952Z,8.73
2022-08-28T09:10:42.851Z,6.57
2022-08-28T09:15:50.081Z,10.93
2022-08-28T09:20:55.888Z,11.82
2022-08-28T09:26:12.561Z,9.43
2022-08-28T09:31:29.109Z,8.52
2022-08-28T09:36:31.498Z,8.55
2022-08-28T09:41:55.118Z,8.35
2022-08-28T09:46:57.039Z,8.43
2022-08-28T09:52:01.832Z,8.73
2022-08-28T09:57:03.731Z,5.38
2022-08-28T10:02:20.911Z,6.32
2022-08-28T10:07:37.388Z,7.30
2022-08-28T10:13:00.245Z,5.85
2022-08-28T10:18:28.759Z,6.47
2022-08-28T10:23:41.751Z,6.47
2022-08-28T10:28:50.514Z,5.80
2022-08-28T10:34:17.709Z,7.75
2022-08-28T10:39:32.475Z,4.50
2022-08-28T10:44:57.639Z,6.30
2022-08-28T10:50:14.576Z,6.47
2022-08-28T10:55:23.729Z,5.45
2022-08-28T11:00:27.810Z,5.27
2022-08-28T11:05:37.625Z,7.40
2022-08-28T11:15:53.354Z,6.68
2022-08-28T11:21:14.596Z,7.68
2022-08-28T11:26:27.725Z,7.93
2022-08-28T11:31:33.050Z,7.93
2022-08-28T11:36:34.473Z,5.22
2022-08-28T11:41:38.959Z,7.78
2022-08-28T11:46:43.766Z,7.18
2022-08-28T11:52:22.310Z,6.53
2022-08-28T12:03:10.012Z,8.27
2022-08-28T12:08:13.511Z,7.57
2022-08-28T12:13:48.971Z,5.38
2022-08-28T12:18:50.349Z,5.15
2022-08-28T12:24:14.630Z,5.63
2022-08-28T12:29:25.494Z,6.43
2022-08-28T12:34:43.611Z,4.47
2022-08-28T12:39:45.109Z,8.15
2022-08-28T12:44:47.379Z,5.20
2022-08-28T12:49:48.847Z,7.50
2022-08-28T12:54:51.322Z,7.35
2022-08-28T12:59:55.728Z,4.00
2022-08-28T13:05:07.423Z,4.38
2022-08-28T13:10:23.070Z,4.20
2022-08-28T13:15:44.986Z,4.85
2022-08-28T13:20:46.452Z,6.00
2022-08-28T13:25:48.504Z,4.55
2022-08-28T13:30:59.935Z,5.40
2022-08-28T13:36:21.736Z,6.38
2022-08-28T13:41:23.221Z,4.15
2022-08-28T13:46:24.738Z,5.85
2022-08-28T13:51:26.805Z,3.75
2022-08-28T13:56:28.378Z,5.80
2022-08-28T14:01:48.551Z,5.75
2022-08-28T14:06:50.308Z,6.22
2022-08-28T14:11:51.813Z,5.28
2022-08-28T14:16:54.772Z,4.40
2022-08-28T14:21:56.974Z,4.25
2022-08-28T14:26:59.046Z,4.20
2022-08-28T14:32:01.811Z,4.60
2022-08-28T14:37:03.365Z,3.40
2022-08-28T14:42:05.360Z,5.22
2022-08-28T14:47:15.032Z,6.80
2022-08-28T14:52:18.621Z,3.97
2022-08-28T14:57:20.110Z,6.88
2022-08-28T15:02:21.606Z,5.20
2022-08-28T15:07:23.069Z,4.68
2022-08-28T15:12:24.487Z,4.05
2022-08-28T15:17:34.024Z,4.78
2022-08-28T15:22:36.806Z,8.05
2022-08-28T15:27:38.264Z,4.00
2022-08-28T15:32:42.087Z,5.07
2022-08-28T15:37:43.729Z,3.92
2022-08-28T15:42:45.403Z,6.15
2022-08-28T15:47:46.922Z,7.30
2022-08-28T15:52:48.688Z,3.97
2022-08-28T15:57:50.248Z,3.97
2022-08-28T16:02:51.739Z,4.43
2022-08-28T16:07:53.185Z,4.35
2022-08-28T16:12:57.480Z,4.30
2022-08-28T16:17:59.167Z,6.03
2022-08-28T16:23:00.595Z,5.00
2022-08-28T16:28:02.927Z,4.65
2022-08-28T16:33:05.683Z,6.20
2022-08-28T16:38:08.474Z,5.55
2022-08-28T16:43:10.188Z,3.95
2022-08-28T16:48:14.078Z,5.88
2022-08-28T16:53:15.729Z,6.80
2022-08-28T16:58:25.983Z,5.22
2022-08-28T17:03:27.637Z,7.53
2022-08-28T17:08:29.085Z,4.40
2022-08-28T17:13:30.567Z,6.13
2022-08-28T17:18:32.752Z,4.10
2022-08-28T17:23:36.348Z,3.90
2022-08-28T17:28:38.509Z,5.40
2022-08-28T17:33:42.001Z,7.05
2022-08-28T17:38:45.072Z,6.50
2022-08-28T17:43:46.495Z,5.63
2022-08-28T17:48:55.525Z,5.43
2022-08-28T17:53:57.678Z,4.05
2022-08-28T17:58:59.125Z,5.20
2022-08-28T18:04:00.602Z,4.32
2022-08-28T18:09:02.612Z,7.18
2022-08-28T18:14:04.847Z,6.35
2022-08-28T18:19:09.542Z,7.10
2022-08-28T18:24:13.024Z,3.78
2022-08-28T18:29:14.521Z,7.18
2022-08-28T18:34:16.377Z,10.45
2022-08-28T18:39:18.966Z,3.70
2022-08-28T18:44:32.307Z,5.75
2022-08-28T18:49:33.788Z,6.68
2022-08-28T18:54:35.228Z,6.32
2022-08-28T18:59:37.839Z,5.60
2022-08-28T19:04:41.479Z,6.70
2022-08-28T19:09:43.053Z,8.00
2022-08-28T19:14:44.541Z,7.45
2022-08-28T19:19:46.056Z,5.47
2022-08-28T19:24:48.526Z,9.65
2022-08-28T19:29:50.407Z,4.63
2022-08-28T19:34:52.404Z,7.15
2022-08-28T19:39:56.324Z,5.43
2022-08-28T19:45:00.015Z,6.82
2022-08-28T19:50:01.975Z,6.70
2022-08-28T19:55:05.673Z,7.22
2022-08-28T20:00:07.810Z,7.88
2022-08-28T20:05:10.875Z,7.55
2022-08-28T20:10:14.199Z,7.63
2022-08-28T20:15:17.141Z,7.18
2022-08-28T20:20:19.847Z,7.82
2022-08-28T20:25:22.023Z,6.88
2022-08-28T20:30:23.442Z,8.73
2022-08-28T20:35:24.954Z,8.77
2022-08-28T20:40:29.418Z,6.45
2022-08-28T20:45:30.931Z,6.22
2022-08-28T20:50:32.375Z,9.98
2022-08-28T20:55:33.800Z,9.05
2022-08-28T21:00:35.500Z,8.63
2022-08-28T21:05:36.958Z,8.80
2022-08-28T21:10:40.421Z,6.82
2022-08-28T21:15:41.946Z,8.05
2022-08-28T21:20:43.449Z,11.40
2022-08-28T21:25:44.909Z,8.75
2022-08-28T21:30:46.489Z,7.30
2022-08-28T21:35:47.948Z,10.35
2022-08-28T21:40:49.369Z,9.90
2022-08-28T21:46:01.868Z,7.63
2022-08-28T21:51:10.461Z,8.45
2022-08-28T21:56:17.305Z,7.32
2022-08-28T22:01:20.870Z,8.80
2022-08-28T22:06:23.816Z,11.70
2022-08-28T22:11:26.812Z,9.65
2022-08-28T22:16:28.812Z,7.47
2022-08-28T22:21:49.154Z,8.25
2022-08-28T22:26:50.636Z,10.15
2022-08-28T22:31:59.188Z,9.48
2022-08-28T22:37:00.663Z,8.65
2022-08-28T22:42:02.134Z,9.43
2022-08-28T22:47:04.763Z,7.55
2022-08-28T22:52:06.343Z,8.38
2022-08-28T22:57:08.601Z,11.88
2022-08-28T23:02:12.195Z,8.73
2022-08-28T23:07:13.653Z,13.05
2022-08-28T23:12:15.073Z,10.20
2022-08-28T23:17:17.587Z,9.75
2022-08-28T23:22:20.234Z,8.30
2022-08-28T23:27:37.111Z,8.02
2022-08-28T23:32:38.743Z,8.15
2022-08-28T23:37:42.937Z,8.95
2022-08-28T23:42:48.942Z,12.32
2022-08-28T23:47:52.224Z,7.22
2022-08-28T23:52:53.720Z,9.70
2022-08-28T23:57:55.227Z,7.13
